Aviation Digital Data Service (ADDS)

Output produced by METARs form (1310 UTC 18 March 2018)
found at http://aviationweather.gov/adds/metars/
METAR text: KSIY 181253Z AUTO 35005KT 10SM FEW029 OVC036 M01/M02 A3009 RMK AO2 SLP212 T10111022
Conditions at: KSIY (MONTAGUE/SISKIYO, CA, US) observed 1253 UTC 18 March 2018
Temperature: -1.1°C (30°F)
Dewpoint: -2.2°C (28°F) [RH = 92%]
Pressure (altimeter): 30.09 inches Hg (1019.0 mb)
[Sea-level pressure: 1021.2 mb]
Winds: from the N (350 degrees) at 6 MPH (5 knots; 2.6 m/s)
Visibility: 10 or more miles (16+ km)
Ceiling: 3600 feet AGL
Clouds: few clouds at 2900 feet AGL
overcast cloud deck at 3600 feet AGL
Weather: automated observation with no human augmentation;
there may or may not be significant weather present at this time